createdAt,value
2022-08-30T00:00:15.518Z,14.07087
2022-08-30T00:05:17.261Z,13.80801
2022-08-30T00:10:19.033Z,13.23161
2022-08-30T00:15:20.654Z,13.77949
2022-08-30T00:20:22.470Z,14.20904
2022-08-30T00:25:23.997Z,14.24078
2022-08-30T00:30:25.595Z,13.64112
2022-08-30T00:35:27.159Z,14.14481
2022-08-30T00:40:28.856Z,14.52507
2022-08-30T00:45:30.625Z,15.79887
2022-08-30T00:50:32.204Z,16.09147
2022-08-30T00:55:33.788Z,16.70378
2022-08-30T01:00:35.394Z,16.48524
2022-08-30T01:05:37.191Z,16.46954
2022-08-30T01:10:38.767Z,17.33046
2022-08-30T01:15:40.605Z,17.01348
2022-08-30T01:20:42.606Z,17.09016
2022-08-30T01:25:44.377Z,18.29475
2022-08-30T01:30:46.039Z,19.26408
2022-08-30T01:35:47.705Z,18.44297
2022-08-30T01:40:49.610Z,19.10554
2022-08-30T01:45:51.313Z,19.2828
2022-08-30T01:50:53.188Z,19.57423
2022-08-30T01:55:54.851Z,20.9062
2022-08-30T02:00:56.535Z,21.52455
2022-08-30T02:05:58.216Z,21.75039
2022-08-30T02:10:59.910Z,22.39755
2022-08-30T02:16:01.485Z,22.21454
2022-08-30T02:21:03.115Z,22.19207
2022-08-30T02:26:04.782Z,22.51251
2022-08-30T02:31:06.640Z,23.99884
2022-08-30T02:36:08.266Z,23.85166
2022-08-30T02:41:09.857Z,24.03768
2022-08-30T02:46:11.693Z,24.22511
2022-08-30T02:51:13.319Z,24.46867
2022-08-30T02:56:14.920Z,25.56595
2022-08-30T03:01:16.643Z,25.48866
2022-08-30T03:06:18.269Z,25.00462
2022-08-30T03:11:19.858Z,27.03885
2022-08-30T03:16:21.560Z,29.70734
2022-08-30T03:21:23.360Z,28.03571
2022-08-30T03:26:24.965Z,28.76547
2022-08-30T03:31:26.746Z,29.57197
2022-08-30T03:36:28.391Z,32.56896
2022-08-30T03:41:30.114Z,30.49161
2022-08-30T03:46:34.459Z,31.08315
2022-08-30T03:51:38.450Z,29.81572
2022-08-30T03:56:40.086Z,31.00225
2022-08-30T04:01:41.684Z,29.57954
2022-08-30T04:06:43.275Z,28.57929
2022-08-30T04:11:44.868Z,28.2465
2022-08-30T04:16:46.503Z,32.02378
2022-08-30T04:21:48.137Z,34.4564
2022-08-30T04:26:49.714Z,33.51132
2022-08-30T04:31:51.367Z,32.32847
2022-08-30T04:36:53.056Z,33.08992
2022-08-30T04:41:54.795Z,32.18046
2022-08-30T04:46:56.895Z,33.40699
2022-08-30T04:51:58.467Z,34.54274
2022-08-30T04:57:01.012Z,37.09338
2022-08-30T05:02:02.718Z,32.21103
2022-08-30T05:07:04.543Z,32.20671
2022-08-30T05:12:06.169Z,32.94836
2022-08-30T05:17:07.783Z,34.94387
2022-08-30T05:22:09.391Z,33.09717
2022-08-30T05:27:10.952Z,47.71495
2022-08-30T05:32:12.537Z,41.77757
2022-08-30T05:37:14.220Z,42.3022
2022-08-30T05:42:16.428Z,37.0075
2022-08-30T05:47:19.039Z,40.34538
2022-08-30T05:52:20.649Z,45.23976
2022-08-30T05:57:22.510Z,40.03934
2022-08-30T06:02:24.253Z,38.95194
2022-08-30T06:07:25.922Z,38.78924
2022-08-30T06:12:27.563Z,38.418
2022-08-30T06:17:29.143Z,37.75562
2022-08-30T06:22:30.779Z,40.42051
2022-08-30T06:27:32.430Z,37.77947
2022-08-30T06:32:34.060Z,37.23693
2022-08-30T06:37:35.682Z,35.92756
2022-08-30T06:42:37.298Z,38.92054
2022-08-30T06:47:38.932Z,36.64206
2022-08-30T06:52:40.525Z,48.81835
2022-08-30T06:57:42.146Z,52.87175
2022-08-30T07:02:43.801Z,41.17112
2022-08-30T07:07:45.410Z,40.52444
2022-08-30T07:12:47.012Z,40.7665
2022-08-30T07:17:48.602Z,40.15505
2022-08-30T07:22:50.218Z,38.13902
2022-08-30T07:27:51.877Z,37.80078
2022-08-30T07:32:53.504Z,39.88374
2022-08-30T07:37:55.101Z,42.17915
2022-08-30T07:42:56.675Z,41.31942
2022-08-30T07:47:58.262Z,41.68952
2022-08-30T07:52:59.867Z,44.9987
2022-08-30T08:03:04.141Z,41.57419
2022-08-30T08:08:05.846Z,41.72872
2022-08-30T08:13:07.459Z,40.47225
2022-08-30T08:18:09.135Z,41.7961
2022-08-30T08:23:11.000Z,47.87093
2022-08-30T08:28:12.627Z,44.60065
2022-08-30T08:33:14.535Z,42.32558
2022-08-30T08:38:16.323Z,45.6144
2022-08-30T08:43:18.069Z,41.79704
2022-08-30T08:48:19.643Z,42.37268
2022-08-30T08:53:45.129Z,43.64324
2022-08-30T08:58:48.200Z,43.47421
2022-08-30T09:03:49.783Z,44.82532
2022-08-30T09:08:51.455Z,45.23796
2022-08-30T09:13:53.106Z,45.08243
2022-08-30T09:18:55.448Z,46.02777
2022-08-30T09:23:57.309Z,50.80672
2022-08-30T09:28:58.889Z,49.59221
2022-08-30T09:34:00.585Z,48.54539
2022-08-30T09:39:02.844Z,60.38452
2022-08-30T09:44:04.445Z,49.44048
2022-08-30T09:49:06.078Z,48.08638
2022-08-30T09:54:17.824Z,46.22602
2022-08-30T09:59:20.084Z,43.70566
2022-08-30T10:04:21.684Z,43.34498
2022-08-30T10:09:23.282Z,43.34142
2022-08-30T10:14:24.919Z,44.34926
2022-08-30T10:19:29.181Z,47.07078
2022-08-30T10:24:33.633Z,43.90703
2022-08-30T10:29:39.402Z,44.76104
2022-08-30T10:34:43.998Z,47.94172
2022-08-30T10:39:45.689Z,46.34876
2022-08-30T10:44:47.315Z,47.06904
2022-08-30T10:49:48.925Z,44.76991
2022-08-30T10:54:53.200Z,43.32814
2022-08-30T10:59:54.795Z,45.43831
2022-08-30T11:04:56.351Z,48.41774
2022-08-30T11:09:57.948Z,52.81035
2022-08-30T11:14:59.546Z,46.64046
2022-08-30T11:20:01.215Z,46.3413
2022-08-30T11:25:02.871Z,45.84364
2022-08-30T11:30:11.615Z,45.56057
2022-08-30T11:35:13.301Z,46.98268
2022-08-30T11:40:19.751Z,45.40856
2022-08-30T11:45:21.461Z,43.90541
2022-08-30T11:50:26.675Z,46.46588
2022-08-30T11:55:28.423Z,45.7043
2022-08-30T12:00:30.016Z,46.28465
2022-08-30T12:05:33.287Z,47.39551
2022-08-30T12:10:35.065Z,48.17573
2022-08-30T12:15:36.731Z,45.69526
2022-08-30T12:20:38.580Z,46.81751
2022-08-30T12:25:40.190Z,46.69377
2022-08-30T12:30:41.996Z,46.64452
2022-08-30T12:35:43.706Z,46.41983
2022-08-30T12:40:45.444Z,47.58558
2022-08-30T12:45:50.811Z,47.4327
2022-08-30T12:50:53.180Z,46.39424
2022-08-30T12:55:54.808Z,47.46246
2022-08-30T13:00:56.706Z,48.06364
2022-08-30T13:06:02.820Z,47.23555
2022-08-30T13:11:07.923Z,47.01715
2022-08-30T13:16:10.436Z,46.31869
2022-08-30T13:21:12.153Z,50.3617
2022-08-30T13:26:14.328Z,53.86262
2022-08-30T13:31:22.653Z,48.38885
2022-08-30T13:36:24.694Z,47.23362
2022-08-30T13:41:26.601Z,47.9166
2022-08-30T13:46:35.699Z,47.0216
2022-08-30T13:51:37.383Z,46.76876
2022-08-30T13:56:38.978Z,47.31463
2022-08-30T14:02:08.274Z,48.19492
2022-08-30T14:07:20.130Z,57.20668
2022-08-30T14:12:52.697Z,53.05434
2022-08-30T14:17:54.663Z,48.71605
2022-08-30T14:22:56.246Z,52.84901
2022-08-30T14:27:58.703Z,50.55467
2022-08-30T14:33:00.296Z,59.37628
2022-08-30T14:38:01.937Z,59.51108
2022-08-30T14:43:03.505Z,54.10052
2022-08-30T14:48:06.155Z,51.67082
2022-08-30T14:53:13.475Z,54.84011
2022-08-30T14:58:15.006Z,58.70206
2022-08-30T15:03:16.587Z,50.32506
2022-08-30T15:08:18.531Z,50.91943
2022-08-30T15:13:20.447Z,51.15298
2022-08-30T15:18:24.546Z,48.00141
2022-08-30T15:23:26.154Z,47.80224
2022-08-30T15:28:27.774Z,45.04268
2022-08-30T15:33:29.543Z,47.12626
2022-08-30T15:38:31.237Z,46.60788
2022-08-30T15:43:33.811Z,46.72165
2022-08-30T15:48:38.923Z,48.24869
2022-08-30T15:53:43.006Z,41.85975
2022-08-30T15:58:44.642Z,39.93974
2022-08-30T16:03:46.235Z,41.55969
2022-08-30T16:08:47.991Z,38.80686
2022-08-30T16:13:50.532Z,35.69467
2022-08-30T16:18:54.171Z,34.12091
2022-08-30T16:23:56.365Z,33.38595
2022-08-30T16:28:58.017Z,32.35907
2022-08-30T16:34:02.551Z,31.29247
2022-08-30T16:39:05.435Z,29.76485
2022-08-30T16:44:10.177Z,29.29076
2022-08-30T16:49:13.422Z,29.47942
2022-08-30T16:54:15.004Z,29.79683
2022-08-30T16:59:16.585Z,28.40663
2022-08-30T17:04:18.855Z,27.93529
2022-08-30T17:09:21.249Z,27.49273
2022-08-30T17:14:29.076Z,26.96833
2022-08-30T17:19:31.018Z,26.60893
2022-08-30T17:24:32.649Z,26.92931
2022-08-30T17:29:34.602Z,25.59988
2022-08-30T17:34:36.212Z,25.69731
2022-08-30T17:39:38.598Z,25.37365
2022-08-30T17:44:42.068Z,25.69188
2022-08-30T17:49:44.042Z,25.69103
2022-08-30T17:54:45.685Z,26.70437
2022-08-30T17:59:47.339Z,25.0444
2022-08-30T18:04:48.982Z,24.55054
2022-08-30T18:09:50.599Z,24.31609
2022-08-30T18:14:52.871Z,24.09081
2022-08-30T18:19:55.833Z,24.11122
2022-08-30T18:25:02.517Z,24.01637
2022-08-30T18:30:04.598Z,24.1375
2022-08-30T18:35:06.185Z,23.22972
2022-08-30T18:40:09.790Z,23.23663
2022-08-30T18:45:14.855Z,22.77531
2022-08-30T18:50:17.363Z,22.46413
2022-08-30T18:55:21.734Z,23.14513
2022-08-30T19:00:23.333Z,22.49202
2022-08-30T19:05:24.931Z,22.51693
2022-08-30T19:10:26.544Z,22.41911
2022-08-30T19:15:28.147Z,22.07676
2022-08-30T19:20:29.794Z,21.78139
2022-08-30T19:25:31.371Z,21.55888
2022-08-30T19:30:33.062Z,21.64524
2022-08-30T19:35:34.688Z,21.46117
2022-08-30T19:40:36.365Z,21.16281
2022-08-30T19:45:38.057Z,20.31366
2022-08-30T19:50:39.691Z,20.58831
2022-08-30T19:55:42.435Z,20.74397
2022-08-30T20:00:52.908Z,19.32961
2022-08-30T20:05:56.480Z,19.42499
2022-08-30T20:10:58.529Z,17.79908
2022-08-30T20:16:00.402Z,17.73883
2022-08-30T20:21:02.241Z,17.08841
2022-08-30T20:26:03.905Z,16.70559
2022-08-30T20:31:05.625Z,16.44196
2022-08-30T20:36:07.375Z,16.24254
2022-08-30T20:41:08.983Z,17.30541
2022-08-30T20:46:10.629Z,15.97221
2022-08-30T20:51:12.310Z,18.03553
2022-08-30T20:56:13.927Z,16.39681
2022-08-30T21:01:15.593Z,16.32699
2022-08-30T21:06:17.239Z,16.79229
2022-08-30T21:11:18.849Z,14.28759
2022-08-30T21:16:22.072Z,15.36282
2022-08-30T21:21:23.862Z,16.07485
2022-08-30T21:26:25.466Z,17.06901
2022-08-30T21:31:27.137Z,17.52055
2022-08-30T21:36:28.831Z,15.59752
2022-08-30T21:41:30.438Z,16.72655
2022-08-30T21:46:32.171Z,17.48282
2022-08-30T21:51:34.171Z,18.73111
2022-08-30T21:56:36.391Z,16.75054
2022-08-30T22:01:38.497Z,16.9859
2022-08-30T22:06:40.290Z,17.09659
2022-08-30T22:11:41.867Z,16.3347
2022-08-30T22:16:44.017Z,17.9214
2022-08-30T22:21:45.642Z,16.85283
2022-08-30T22:26:47.220Z,16.68386
2022-08-30T22:31:48.907Z,16.35983
2022-08-30T22:36:50.690Z,15.99397
2022-08-30T22:41:52.308Z,15.38161
2022-08-30T22:46:53.914Z,15.95345
2022-08-30T22:51:55.488Z,15.13141
2022-08-30T22:56:57.112Z,14.50988
2022-08-30T23:01:58.850Z,13.3039
2022-08-30T23:07:00.702Z,11.6642
2022-08-30T23:12:02.324Z,10.32057
2022-08-30T23:17:03.982Z,11.02709
2022-08-30T23:22:05.636Z,11.83137
2022-08-30T23:27:07.216Z,11.96622
2022-08-30T23:32:08.886Z,10.30666
2022-08-30T23:37:10.533Z,11.39501
2022-08-30T23:42:12.136Z,11.04154
2022-08-30T23:47:13.762Z,13.25794
2022-08-30T23:52:15.361Z,12.73802
2022-08-30T23:57:16.935Z,10.47501
